Time;durP1;ratioP1;P1;durP2;ratioP2;P2;SDS_P1;SDS_P2;PMS_P1;PMS_P2;Temp;Humidity;BMP_temperature;BMP_pressure;BME280_temperature;BME280_humidity;BME280_pressure;Samples;Min_cycle;Max_cycle;Signal;HPM_P1;HPM_P2
2022/04/28 00:00:51;;;;;;;5.93;2.67;;;;;;;;;;4403109;32;20303;-57
2022/04/28 00:03:16;;;;;;;14.65;4.28;;;;;;;;;;4402422;32;20545;-57
2022/04/28 00:05:42;;;;;;;7.72;3.58;;;;;;;;;;4398853;32;20288;-57
2022/04/28 00:08:09;;;;;;;11.30;4.03;;;;;;;;;;4388044;32;20217;-58
2022/04/28 00:10:36;;;;;;;8.25;3.40;;;;;;;;;;4399546;32;20252;-57
2022/04/28 00:13:03;;;;;;;6.12;3.10;;;;;;;;;;4388324;32;20699;-57
2022/04/28 00:15:29;;;;;;;9.80;3.33;;;;;;;;;;4387182;32;20608;-58
2022/04/28 00:17:54;;;;;;;14.02;3.12;;;;;;;;;;4388126;32;20306;-57
2022/04/28 00:20:20;;;;;;;6.10;3.42;;;;;;;;;;4388161;32;20764;-57
2022/04/28 00:22:46;;;;;;;11.68;3.70;;;;;;;;;;4387847;32;20221;-57
2022/04/28 00:25:11;;;;;;;12.20;5.62;;;;;;;;;;4396992;32;20339;-58
2022/04/28 00:27:37;;;;;;;15.25;6.03;;;;;;;;;;4403048;32;20229;-58
2022/04/28 00:30:04;;;;;;;12.25;5.18;;;;;;;;;;4403058;32;20369;-58
2022/04/28 00:32:30;;;;;;;10.23;4.68;;;;;;;;;;4403108;32;20358;-57
2022/04/28 00:34:55;;;;;;;12.65;5.28;;;;;;;;;;4402905;32;20284;-58
2022/04/28 00:37:21;;;;;;;14.60;4.10;;;;;;;;;;4402645;32;20225;-57
2022/04/28 00:39:47;;;;;;;13.52;3.00;;;;;;;;;;4402812;32;20288;-58
2022/04/28 00:42:14;;;;;;;10.48;3.53;;;;;;;;;;4402859;32;20243;-57
2022/04/28 00:44:40;;;;;;;8.38;3.75;;;;;;;;;;4402820;32;20326;-57
2022/04/28 00:47:06;;;;;;;4.18;2.55;;;;;;;;;;4402616;32;20202;-57
2022/04/28 00:52:17;;;;;;;8.25;3.22;;;;;;;;;;4402562;32;20779;-57
2022/04/28 00:54:44;;;;;;;9.93;3.25;;;;;;;;;;4402787;32;20284;-57
2022/04/28 00:57:10;;;;;;;9.23;3.50;;;;;;;;;;4402762;32;20353;-57
2022/04/28 00:59:38;;;;;;;7.68;3.50;;;;;;;;;;4402394;32;20230;-57
2022/04/28 01:02:04;;;;;;;7.60;3.53;;;;;;;;;;4402345;32;20734;-57
2022/04/28 01:04:30;;;;;;;5.43;3.28;;;;;;;;;;4402539;32;20669;-57
2022/04/28 01:06:56;;;;;;;8.57;2.87;;;;;;;;;;4402300;32;20247;-57
2022/04/28 01:09:21;;;;;;;9.63;3.78;;;;;;;;;;4401352;32;20350;-57
2022/04/28 01:11:47;;;;;;;5.93;2.78;;;;;;;;;;4402569;32;20516;-56
2022/04/28 01:14:12;;;;;;;7.65;3.10;;;;;;;;;;4392815;32;20248;-56
2022/04/28 01:16:38;;;;;;;14.48;3.15;;;;;;;;;;4387333;32;20278;-56
2022/04/28 01:19:03;;;;;;;4.03;2.80;;;;;;;;;;4387393;32;20237;-59
2022/04/28 01:21:30;;;;;;;6.82;2.95;;;;;;;;;;4396429;32;20348;-58
2022/04/28 01:23:56;;;;;;;8.18;3.45;;;;;;;;;;4402811;32;20362;-57
2022/04/28 01:26:23;;;;;;;8.82;2.92;;;;;;;;;;4402196;32;20229;-57
2022/04/28 01:28:49;;;;;;;15.60;3.25;;;;;;;;;;4402117;32;20263;-57
2022/04/28 01:31:14;;;;;;;6.37;2.65;;;;;;;;;;4402556;32;20297;-58
2022/04/28 01:33:40;;;;;;;7.15;2.60;;;;;;;;;;4401875;32;20308;-58
2022/04/28 01:36:05;;;;;;;4.00;2.55;;;;;;;;;;4402266;32;20303;-57
2022/04/28 01:38:32;;;;;;;6.82;2.75;;;;;;;;;;4401729;32;20252;-57
2022/04/28 01:40:58;;;;;;;8.90;3.50;;;;;;;;;;4401993;32;20270;-58
2022/04/28 01:43:23;;;;;;;11.32;3.20;;;;;;;;;;4401936;32;20305;-57
2022/04/28 01:45:49;;;;;;;7.50;2.25;;;;;;;;;;4402058;32;20273;-58
2022/04/28 01:48:14;;;;;;;4.70;2.40;;;;;;;;;;4401737;32;20363;-58
2022/04/28 01:50:40;;;;;;;9.02;2.80;;;;;;;;;;4399391;32;20311;-58
2022/04/28 01:55:50;;;;;;;11.38;3.42;;;;;;;;;;4386944;32;20314;-56
2022/04/28 01:58:15;;;;;;;6.53;2.83;;;;;;;;;;4387462;32;20543;-57
2022/04/28 02:00:41;;;;;;;7.37;3.17;;;;;;;;;;4386939;32;20265;-56
2022/04/28 02:03:07;;;;;;;9.52;3.37;;;;;;;;;;4393076;32;20241;-57
2022/04/28 02:05:32;;;;;;;8.23;3.08;;;;;;;;;;4401564;32;20276;-57
2022/04/28 02:07:59;;;;;;;8.40;2.70;;;;;;;;;;4401870;32;20561;-57
2022/04/28 02:10:25;;;;;;;8.05;2.67;;;;;;;;;;4401453;32;20206;-58
2022/04/28 02:12:50;;;;;;;10.75;3.78;;;;;;;;;;4401779;32;20637;-57
2022/04/28 02:15:16;;;;;;;6.87;3.15;;;;;;;;;;4401281;32;20659;-57
2022/04/28 02:17:41;;;;;;;7.53;3.35;;;;;;;;;;4401211;32;20225;-58
2022/04/28 02:20:11;;;;;;;8.68;3.00;;;;;;;;;;4401429;32;20311;-57
2022/04/28 02:22:37;;;;;;;6.78;3.45;;;;;;;;;;4401488;32;20340;-57
2022/04/28 02:25:04;;;;;;;5.37;3.25;;;;;;;;;;4401676;32;20279;-57
2022/04/28 02:27:30;;;;;;;9.55;3.50;;;;;;;;;;4401103;32;20465;-57
2022/04/28 02:29:55;;;;;;;6.40;3.50;;;;;;;;;;4401682;32;20276;-57
2022/04/28 02:32:21;;;;;;;10.20;4.05;;;;;;;;;;4401078;32;20221;-57
2022/04/28 02:34:46;;;;;;;6.75;4.07;;;;;;;;;;4401647;32;20297;-57
2022/04/28 02:37:13;;;;;;;10.88;4.60;;;;;;;;;;4400257;32;20259;-57
2022/04/28 02:39:39;;;;;;;8.73;4.12;;;;;;;;;;4401108;32;20236;-57
2022/04/28 02:42:04;;;;;;;6.40;3.70;;;;;;;;;;4401031;32;20214;-56
2022/04/28 02:44:30;;;;;;;7.85;5.05;;;;;;;;;;4401268;32;20629;-58
2022/04/28 02:46:55;;;;;;;6.75;3.45;;;;;;;;;;4401157;32;20186;-57
2022/04/28 02:49:21;;;;;;;12.02;4.03;;;;;;;;;;4401117;32;20314;-57
2022/04/28 02:51:46;;;;;;;9.55;3.62;;;;;;;;;;4391399;32;20273;-57
2022/04/28 02:54:12;;;;;;;11.73;3.12;;;;;;;;;;4386400;32;20226;-58
2022/04/28 02:56:38;;;;;;;3.83;3.10;;;;;;;;;;4386080;32;20236;-57
2022/04/28 02:59:03;;;;;;;5.53;3.15;;;;;;;;;;4395459;32;20234;-56
2022/04/28 03:01:29;;;;;;;6.12;3.62;;;;;;;;;;4400188;32;20379;-56
2022/04/28 03:03:54;;;;;;;8.65;4.30;;;;;;;;;;4401155;32;20267;-57
2022/04/28 03:11:50;;;;;;;5.95;3.83;;;;;;;;;;4401148;32;20369;-57
2022/04/28 03:14:16;;;;;;;14.13;4.32;;;;;;;;;;4400944;32;20284;-58
2022/04/28 03:16:42;;;;;;;7.37;4.10;;;;;;;;;;4400968;32;20359;-57
2022/04/28 03:19:08;;;;;;;6.55;2.87;;;;;;;;;;4401275;32;20229;-57
2022/04/28 03:21:34;;;;;;;4.85;2.75;;;;;;;;;;4400827;32;20633;-56
2022/04/28 03:24:01;;;;;;;12.40;5.50;;;;;;;;;;4400023;32;20339;-57
2022/04/28 03:26:28;;;;;;;16.00;7.22;;;;;;;;;;4401708;32;20226;-56
2022/04/28 03:28:55;;;;;;;10.75;6.45;;;;;;;;;;4403772;32;20312;-57
2022/04/28 03:31:21;;;;;;;12.48;5.62;;;;;;;;;;4403642;32;20256;-57
2022/04/28 03:33:46;;;;;;;7.12;4.87;;;;;;;;;;4403932;32;20321;-56
2022/04/28 03:38:56;;;;;;;9.07;4.10;;;;;;;;;;4403832;32;20836;-57
2022/04/28 03:41:22;;;;;;;9.80;4.20;;;;;;;;;;4403658;32;20317;-57
2022/04/28 03:43:47;;;;;;;7.43;4.70;;;;;;;;;;4403255;32;20590;-57
2022/04/28 03:46:15;;;;;;;7.37;4.57;;;;;;;;;;4402529;32;20817;-57
2022/04/28 03:48:41;;;;;;;15.45;4.40;;;;;;;;;;4402468;32;20323;-57
2022/04/28 03:51:06;;;;;;;9.60;4.80;;;;;;;;;;4403544;32;20368;-58
2022/04/28 03:53:31;;;;;;;4.68;3.78;;;;;;;;;;4403869;32;20225;-57
2022/04/28 03:55:58;;;;;;;5.87;4.40;;;;;;;;;;4398374;32;20350;-56
2022/04/28 03:58:25;;;;;;;6.82;4.10;;;;;;;;;;4393528;32;20597;-57
2022/04/28 04:00:51;;;;;;;7.00;3.85;;;;;;;;;;4403679;32;20217;-56
2022/04/28 04:03:19;;;;;;;6.60;3.62;;;;;;;;;;4399034;32;20709;-56
2022/04/28 04:05:45;;;;;;;5.07;4.15;;;;;;;;;;4402925;32;20271;-57
2022/04/28 04:08:10;;;;;;;7.35;3.90;;;;;;;;;;4403132;32;20226;-57
2022/04/28 04:10:36;;;;;;;11.65;5.00;;;;;;;;;;4403053;32;20288;-57
2022/04/28 04:13:01;;;;;;;13.13;4.80;;;;;;;;;;4403066;32;20679;-57
2022/04/28 04:15:27;;;;;;;5.05;4.37;;;;;;;;;;4403199;32;20649;-56
2022/04/28 04:17:52;;;;;;;11.32;4.10;;;;;;;;;;4403084;32;20229;-56
2022/04/28 04:20:18;;;;;;;6.35;4.90;;;;;;;;;;4403205;32;20749;-57
2022/04/28 04:22:44;;;;;;;13.62;4.32;;;;;;;;;;4403051;32;20225;-57
2022/04/28 04:25:09;;;;;;;7.03;4.55;;;;;;;;;;4402988;32;20299;-57
2022/04/28 04:27:35;;;;;;;7.97;5.10;;;;;;;;;;4402975;32;20236;-57
2022/04/28 04:32:17;;;;;;;12.23;5.05;;;;;;;;;;4403144;32;20314;-57
2022/04/28 04:32:46;;;;;;;6.82;4.07;;;;;;;;;;4402812;32;20218;-56
2022/04/28 04:35:11;;;;;;;9.50;4.55;;;;;;;;;;4403222;32;20609;-56
2022/04/28 04:37:39;;;;;;;8.30;4.90;;;;;;;;;;4399620;32;20214;-56
2022/04/28 04:40:05;;;;;;;5.93;4.75;;;;;;;;;;4388645;32;20621;-56
2022/04/28 04:42:30;;;;;;;6.90;5.30;;;;;;;;;;4388443;32;20417;-57
2022/04/28 04:44:55;;;;;;;9.95;6.03;;;;;;;;;;4388083;32;20210;-57
2022/04/28 04:47:21;;;;;;;7.85;6.40;;;;;;;;;;4391780;32;20260;-57
2022/04/28 04:49:46;;;;;;;11.35;6.10;;;;;;;;;;4401788;32;20399;-57
2022/04/28 04:52:12;;;;;;;12.13;5.75;;;;;;;;;;4403431;32;20192;-57
2022/04/28 04:54:37;;;;;;;8.73;5.45;;;;;;;;;;4403087;32;20311;-56
2022/04/28 04:57:03;;;;;;;7.25;5.28;;;;;;;;;;4402653;32;20224;-56
2022/04/28 04:59:28;;;;;;;8.05;6.12;;;;;;;;;;4391197;32;20333;-55
2022/04/28 05:01:54;;;;;;;6.43;5.45;;;;;;;;;;4387782;32;20236;-57
2022/04/28 05:04:19;;;;;;;10.60;7.30;;;;;;;;;;4401972;32;20308;-55
2022/04/28 05:06:45;;;;;;;7.22;5.18;;;;;;;;;;4402695;32;20206;-56
2022/04/28 05:09:10;;;;;;;8.55;5.28;;;;;;;;;;4403195;32;20252;-57
2022/04/28 05:11:36;;;;;;;8.05;5.68;;;;;;;;;;4402733;32;20521;-57
2022/04/28 05:14:01;;;;;;;4.85;4.37;;;;;;;;;;4402711;32;20226;-57
2022/04/28 05:16:27;;;;;;;6.72;6.03;;;;;;;;;;4402601;32;20284;-57
2022/04/28 05:18:52;;;;;;;6.15;5.30;;;;;;;;;;4402350;32;20229;-57
2022/04/28 05:21:17;;;;;;;5.60;4.15;;;;;;;;;;4401311;32;20308;-57
2022/04/28 05:23:43;;;;;;;7.30;5.12;;;;;;;;;;4402494;32;20264;-56
2022/04/28 05:26:08;;;;;;;7.95;5.62;;;;;;;;;;4400226;32;20225;-57
2022/04/28 05:28:34;;;;;;;9.85;5.12;;;;;;;;;;4402378;32;20302;-57
2022/04/28 05:30:59;;;;;;;10.18;5.57;;;;;;;;;;4401024;32;20335;-57
2022/04/28 05:33:30;;;;;;;7.65;5.22;;;;;;;;;;4391786;32;20255;-56
2022/04/28 05:35:56;;;;;;;6.80;5.50;;;;;;;;;;4399618;32;20243;-58
2022/04/28 05:38:22;;;;;;;9.45;6.05;;;;;;;;;;4398873;32;20252;-56
2022/04/28 05:40:47;;;;;;;9.40;6.40;;;;;;;;;;4398365;32;20334;-56
2022/04/28 05:45:57;;;;;;;7.43;6.25;;;;;;;;;;4400141;32;20248;-57
2022/04/28 05:48:23;;;;;;;7.75;6.37;;;;;;;;;;4400658;32;20237;-56
2022/04/28 05:50:48;;;;;;;7.45;5.70;;;;;;;;;;4401791;32;20280;-56
2022/04/28 05:53:14;;;;;;;9.63;5.53;;;;;;;;;;4402220;32;20237;-57
2022/04/28 05:55:40;;;;;;;6.53;5.25;;;;;;;;;;4393864;32;20736;-57
2022/04/28 05:58:06;;;;;;;7.70;6.45;;;;;;;;;;4401292;32;20214;-55
2022/04/28 06:00:33;;;;;;;10.63;6.03;;;;;;;;;;4401819;32;20394;-57
2022/04/28 06:02:59;;;;;;;9.02;5.53;;;;;;;;;;4400908;32;20363;-55
2022/04/28 06:05:25;;;;;;;8.45;5.22;;;;;;;;;;4398442;32;20713;-55
2022/04/28 06:07:51;;;;;;;10.82;5.68;;;;;;;;;;4385646;32;20292;-55
2022/04/28 06:10:16;;;;;;;7.07;5.65;;;;;;;;;;4395784;32;20322;-56
2022/04/28 06:12:42;;;;;;;10.70;5.70;;;;;;;;;;4400881;32;20304;-57
2022/04/28 06:15:09;;;;;;;10.57;5.12;;;;;;;;;;4400089;32;20288;-58
2022/04/28 06:17:34;;;;;;;15.45;5.78;;;;;;;;;;4399716;32;20587;-58
2022/04/28 06:20:00;;;;;;;7.97;5.35;;;;;;;;;;4399924;32;20458;-56
2022/04/28 06:22:25;;;;;;;5.80;4.85;;;;;;;;;;4398906;32;20623;-56
2022/04/28 06:24:55;;;;;;;10.82;5.70;;;;;;;;;;4400372;32;20288;-56
2022/04/28 06:27:21;;;;;;;6.90;5.97;;;;;;;;;;4400052;32;20734;-55
2022/04/28 06:29:49;;;;;;;10.05;6.37;;;;;;;;;;4401198;32;20675;-56
2022/04/28 06:32:17;;;;;;;11.07;5.37;;;;;;;;;;4400997;32;20221;-56
2022/04/28 06:34:44;;;;;;;7.45;5.97;;;;;;;;;;4394265;32;20819;-57
2022/04/28 06:37:10;;;;;;;7.12;5.25;;;;;;;;;;4386022;32;20657;-57
2022/04/28 06:39:35;;;;;;;6.47;5.43;;;;;;;;;;4401489;32;20308;-56
2022/04/28 06:42:01;;;;;;;9.00;5.50;;;;;;;;;;4401922;32;20232;-56
2022/04/28 06:44:26;;;;;;;8.15;6.05;;;;;;;;;;4399482;32;20279;-57
2022/04/28 06:46:52;;;;;;;6.20;5.20;;;;;;;;;;4398026;32;20237;-57
2022/04/28 06:49:17;;;;;;;6.07;4.82;;;;;;;;;;4397354;32;20255;-58
2022/04/28 06:51:43;;;;;;;20.27;6.53;;;;;;;;;;4388667;32;20248;-57
2022/04/28 06:54:09;;;;;;;6.65;5.35;;;;;;;;;;4397140;32;20233;-56
2022/04/28 06:56:34;;;;;;;10.73;5.78;;;;;;;;;;4399047;32;20229;-55
2022/04/28 06:59:00;;;;;;;8.57;6.28;;;;;;;;;;4400490;32;20323;-56
2022/04/28 07:01:25;;;;;;;9.02;6.32;;;;;;;;;;4401906;32;20295;-56
2022/04/28 07:03:51;;;;;;;9.40;6.18;;;;;;;;;;4403438;32;20592;-56
2022/04/28 07:06:16;;;;;;;11.25;5.60;;;;;;;;;;4403253;32;20334;-56
2022/04/28 07:08:43;;;;;;;9.35;4.62;;;;;;;;;;4403731;32;20242;-57
2022/04/28 07:11:09;;;;;;;7.10;5.10;;;;;;;;;;4401714;32;20256;-56
2022/04/28 07:13:37;;;;;;;7.32;4.87;;;;;;;;;;4407776;32;20616;-57
2022/04/28 07:16:03;;;;;;;17.58;6.03;;;;;;;;;;4416449;32;20209;-56
2022/04/28 07:18:29;;;;;;;10.48;5.87;;;;;;;;;;4411745;32;20289;-56
2022/04/28 07:20:54;;;;;;;6.97;4.80;;;;;;;;;;4402183;32;20651;-55
2022/04/28 07:23:20;;;;;;;8.05;4.47;;;;;;;;;;4399750;32;20339;-57
2022/04/28 07:25:46;;;;;;;7.50;4.80;;;;;;;;;;4398743;32;20573;-57
2022/04/28 07:28:11;;;;;;;6.12;4.93;;;;;;;;;;4399880;32;20229;-56
2022/04/28 07:30:37;;;;;;;6.60;4.90;;;;;;;;;;4397174;32;20379;-56
2022/04/28 07:33:03;;;;;;;9.48;4.82;;;;;;;;;;4385970;32;20260;-56
2022/04/28 07:35:30;;;;;;;6.10;4.55;;;;;;;;;;4389132;32;20393;-58
2022/04/28 07:37:55;;;;;;;7.65;5.22;;;;;;;;;;4403185;32;20580;-56
2022/04/28 07:40:21;;;;;;;6.05;5.22;;;;;;;;;;4402851;32;20326;-57
2022/04/28 07:42:46;;;;;;;19.25;6.10;;;;;;;;;;4402884;32;20221;-57
2022/04/28 07:45:12;;;;;;;9.75;5.00;;;;;;;;;;4402991;32;20291;-57
2022/04/28 07:47:37;;;;;;;6.65;5.10;;;;;;;;;;4399139;32;20630;-57
2022/04/28 07:50:04;;;;;;;11.27;4.35;;;;;;;;;;4389208;32;20693;-57
2022/04/28 07:52:30;;;;;;;7.97;4.25;;;;;;;;;;4400375;32;20263;-56
2022/04/28 07:54:56;;;;;;;6.93;4.95;;;;;;;;;;4400875;32;20225;-56
2022/04/28 07:57:23;;;;;;;6.05;4.50;;;;;;;;;;4398762;32;20358;-56
2022/04/28 07:59:49;;;;;;;10.48;4.53;;;;;;;;;;4397012;32;20214;-57
2022/04/28 08:02:15;;;;;;;10.48;7.30;;;;;;;;;;4401948;32;20249;-56
2022/04/28 08:04:41;;;;;;;10.77;4.37;;;;;;;;;;4402694;32;20280;-57
2022/04/28 08:07:07;;;;;;;7.65;4.40;;;;;;;;;;4391288;32;20813;-56
2022/04/28 08:09:32;;;;;;;8.63;5.05;;;;;;;;;;4398784;32;20249;-57
2022/04/28 08:11:58;;;;;;;6.75;5.18;;;;;;;;;;4390065;32;20262;-56
2022/04/28 08:14:24;;;;;;;6.82;5.00;;;;;;;;;;4387872;32;20315;-57
2022/04/28 08:16:51;;;;;;;7.40;4.47;;;;;;;;;;4393302;32;20425;-57
2022/04/28 08:19:16;;;;;;;8.15;4.43;;;;;;;;;;4387358;32;20315;-56
2022/04/28 08:21:42;;;;;;;7.35;5.28;;;;;;;;;;4387706;32;20202;-57
2022/04/28 08:24:07;;;;;;;11.45;4.72;;;;;;;;;;4403152;32;20680;-57
2022/04/28 08:26:32;;;;;;;9.38;4.80;;;;;;;;;;4399927;32;20496;-57
2022/04/28 08:28:58;;;;;;;6.62;4.22;;;;;;;;;;4385752;32;20264;-57
2022/04/28 08:31:24;;;;;;;8.30;4.93;;;;;;;;;;4385655;32;20336;-57
2022/04/28 08:33:49;;;;;;;6.85;5.03;;;;;;;;;;4395546;32;20853;-57
2022/04/28 08:36:15;;;;;;;6.47;4.82;;;;;;;;;;4397332;32;20298;-57
2022/04/28 08:38:42;;;;;;;6.45;4.85;;;;;;;;;;4395214;32;20312;-57
2022/04/28 08:41:09;;;;;;;12.93;5.03;;;;;;;;;;4397481;32;20677;-58
2022/04/28 08:43:37;;;;;;;8.25;4.80;;;;;;;;;;4388986;32;20233;-57
2022/04/28 08:48:52;;;;;;;9.95;5.25;;;;;;;;;;4392304;32;20720;-56
2022/04/28 08:51:26;;;;;;;7.43;5.05;;;;;;;;;;4395330;32;20312;-57
2022/04/28 08:53:53;;;;;;;13.88;5.00;;;;;;;;;;4392945;32;20255;-57
2022/04/28 08:56:20;;;;;;;7.60;5.50;;;;;;;;;;4397824;32;20213;-57
2022/04/28 08:58:47;;;;;;;6.60;5.32;;;;;;;;;;4393206;32;20368;-57
2022/04/28 09:01:13;;;;;;;6.53;5.05;;;;;;;;;;4401129;32;20251;-57
2022/04/28 09:03:38;;;;;;;7.65;5.53;;;;;;;;;;4392349;32;20620;-57
2022/04/28 09:06:29;;;;;;;12.45;5.00;;;;;;;;;;4387276;32;20280;-57
2022/04/28 09:08:56;;;;;;;8.93;5.05;;;;;;;;;;4400976;32;20294;-57
2022/04/28 09:11:27;;;;;;;7.93;4.40;;;;;;;;;;4388754;32;20285;-57
2022/04/28 09:14:10;;;;;;;9.45;4.97;;;;;;;;;;4386984;32;20285;-56
2022/04/28 09:16:52;;;;;;;10.00;6.00;;;;;;;;;;4386785;32;20193;-57
2022/04/28 09:19:22;;;;;;;16.33;9.35;;;;;;;;;;4386864;32;20652;-57
2022/04/28 09:21:50;;;;;;;8.80;6.37;;;;;;;;;;4385751;32;20704;-56
2022/04/28 09:24:16;;;;;;;10.45;5.00;;;;;;;;;;4387960;32;20328;-56
2022/04/28 09:26:42;;;;;;;9.35;5.70;;;;;;;;;;4401929;32;20687;-56
2022/04/28 09:29:16;;;;;;;15.02;5.22;;;;;;;;;;4402489;32;20721;-56
2022/04/28 09:31:44;;;;;;;9.52;4.72;;;;;;;;;;4400318;32;20318;-56
2022/04/28 09:34:11;;;;;;;6.85;4.93;;;;;;;;;;4402577;32;20229;-57
2022/04/28 09:36:38;;;;;;;8.40;5.57;;;;;;;;;;4402467;32;20589;-57
2022/04/28 09:39:09;;;;;;;10.00;5.25;;;;;;;;;;4401697;32;20222;-56
2022/04/28 09:44:21;;;;;;;6.25;5.10;;;;;;;;;;4402131;32;20235;-57
2022/04/28 09:46:48;;;;;;;7.00;4.62;;;;;;;;;;4402373;32;20382;-56
2022/04/28 09:49:20;;;;;;;6.70;5.57;;;;;;;;;;4401102;32;20355;-57
2022/04/28 09:51:46;;;;;;;8.23;4.93;;;;;;;;;;4401620;32;20229;-56
2022/04/28 09:54:13;;;;;;;7.37;4.40;;;;;;;;;;4400240;32;20547;-56
2022/04/28 09:56:43;;;;;;;6.95;4.03;;;;;;;;;;4401711;32;20203;-56
2022/04/28 09:59:12;;;;;;;12.25;5.18;;;;;;;;;;4401422;32;20248;-56
2022/04/28 10:01:38;;;;;;;7.47;4.57;;;;;;;;;;4401383;32;20202;-56
2022/04/28 10:04:06;;;;;;;6.85;4.78;;;;;;;;;;4387857;32;20525;-56
2022/04/28 10:06:34;;;;;;;6.65;4.78;;;;;;;;;;4394399;32;20251;-57
2022/04/28 10:09:05;;;;;;;10.63;5.47;;;;;;;;;;4399687;32;20250;-56
2022/04/28 10:11:31;;;;;;;9.45;4.80;;;;;;;;;;4393657;32;20298;-56
2022/04/28 10:13:59;;;;;;;9.60;5.03;;;;;;;;;;4384538;32;20327;-56
2022/04/28 10:16:25;;;;;;;9.55;5.37;;;;;;;;;;4390299;32;20668;-56
2022/04/28 10:19:13;;;;;;;6.28;5.10;;;;;;;;;;4392380;32;20222;-56
2022/04/28 10:21:53;;;;;;;22.58;6.30;;;;;;;;;;4386840;32;20248;-56
2022/04/28 10:32:58;;;;;;;11.63;5.72;;;;;;;;;;4392930;32;20941;-57
2022/04/28 10:35:44;;;;;;;11.48;5.50;;;;;;;;;;4397233;32;20676;-57
2022/04/28 10:38:21;;;;;;;6.93;5.65;;;;;;;;;;4391121;32;20364;-58
2022/04/28 10:41:05;;;;;;;13.55;6.18;;;;;;;;;;4398272;32;20224;-55
2022/04/28 10:43:33;;;;;;;8.45;5.12;;;;;;;;;;4390677;32;20323;-55
2022/04/28 10:46:08;;;;;;;13.75;6.03;;;;;;;;;;4399956;32;20280;-55
2022/04/28 10:48:45;;;;;;;13.57;5.20;;;;;;;;;;4394560;32;20346;-58
2022/04/28 10:51:19;;;;;;;9.00;4.50;;;;;;;;;;4394862;32;20288;-56
2022/04/28 10:54:05;;;;;;;8.63;5.97;;;;;;;;;;4386729;32;20246;-56
2022/04/28 10:56:56;;;;;;;12.25;5.35;;;;;;;;;;4395262;32;20578;-57
2022/04/28 10:59:29;;;;;;;8.20;5.47;;;;;;;;;;4388948;32;20360;-55
2022/04/28 11:01:57;;;;;;;13.90;5.87;;;;;;;;;;4384118;32;20218;-54
2022/04/28 11:04:24;;;;;;;10.98;6.30;;;;;;;;;;4398821;32;20213;-55
2022/04/28 11:06:57;;;;;;;12.57;5.62;;;;;;;;;;4397889;32;20413;-55
2022/04/28 11:09:34;;;;;;;7.22;4.55;;;;;;;;;;4399428;32;20317;-57
2022/04/28 11:12:33;;;;;;;14.20;5.55;;;;;;;;;;4394151;32;20226;-55
2022/04/28 11:15:03;;;;;;;7.75;4.95;;;;;;;;;;4398652;32;20274;-55
2022/04/28 11:17:31;;;;;;;8.77;3.67;;;;;;;;;;4398225;32;20657;-55
2022/04/28 11:20:04;;;;;;;5.65;4.40;;;;;;;;;;4387299;32;20248;-56
2022/04/28 11:22:31;;;;;;;10.88;5.05;;;;;;;;;;4399334;32;20431;-55
2022/04/28 11:24:56;;;;;;;8.48;5.15;;;;;;;;;;4398989;32;20829;-55
2022/04/28 11:27:24;;;;;;;6.30;4.20;;;;;;;;;;4398987;32;20238;-55
2022/04/28 11:29:51;;;;;;;5.43;4.30;;;;;;;;;;4400031;32;20312;-55
2022/04/28 11:32:18;;;;;;;6.32;4.70;;;;;;;;;;4394528;32;20633;-55
2022/04/28 11:34:44;;;;;;;20.33;5.25;;;;;;;;;;4389397;32;20713;-57
2022/04/28 11:37:24;;;;;;;13.73;4.57;;;;;;;;;;4400439;32;20477;-55
2022/04/28 11:39:52;;;;;;;7.82;5.45;;;;;;;;;;4394303;32;20231;-55
2022/04/28 11:42:19;;;;;;;12.40;5.50;;;;;;;;;;4401113;32;20743;-55
2022/04/28 11:44:46;;;;;;;11.43;5.40;;;;;;;;;;4399674;32;20233;-55
2022/04/28 11:47:12;;;;;;;7.68;4.70;;;;;;;;;;4400506;32;20190;-55
2022/04/28 11:49:40;;;;;;;9.13;5.62;;;;;;;;;;4401654;32;20719;-55
2022/04/28 11:52:23;;;;;;;7.25;5.72;;;;;;;;;;4401804;32;20244;-55
2022/04/28 11:54:58;;;;;;;10.43;5.75;;;;;;;;;;4401976;32;20267;-54
2022/04/28 11:57:23;;;;;;;12.15;5.57;;;;;;;;;;4401543;32;20641;-55
2022/04/28 11:59:50;;;;;;;20.12;5.30;;;;;;;;;;4401807;32;20317;-56
2022/04/28 12:02:30;;;;;;;9.52;5.10;;;;;;;;;;4401624;32;20251;-55
2022/04/28 12:04:56;;;;;;;12.35;5.80;;;;;;;;;;4403743;32;20189;-55
2022/04/28 12:07:26;;;;;;;14.93;5.57;;;;;;;;;;4388346;32;20230;-56
2022/04/28 12:15:25;;;;;;;7.78;5.87;;;;;;;;;;4402637;32;20217;-55
2022/04/28 12:21:01;;;;;;;7.28;4.97;;;;;;;;;;4402340;32;20268;-55
2022/04/28 12:23:37;;;;;;;10.30;5.87;;;;;;;;;;4403447;32;20234;-55
2022/04/28 12:26:06;;;;;;;8.18;6.10;;;;;;;;;;4389196;32;20335;-56
2022/04/28 12:28:32;;;;;;;7.12;5.32;;;;;;;;;;4388285;32;20214;-56
2022/04/28 12:30:57;;;;;;;11.95;4.12;;;;;;;;;;4386921;32;20324;-56
2022/04/28 12:33:25;;;;;;;8.25;5.40;;;;;;;;;;4389970;32;20213;-57
2022/04/28 12:35:51;;;;;;;9.23;5.65;;;;;;;;;;4396254;32;20379;-55
2022/04/28 12:38:26;;;;;;;9.50;5.97;;;;;;;;;;4400298;32;20248;-55
2022/04/28 12:40:51;;;;;;;8.93;5.53;;;;;;;;;;4403358;32;20209;-55
2022/04/28 12:43:38;;;;;;;11.60;4.70;;;;;;;;;;4391879;32;20247;-55
2022/04/28 12:46:05;;;;;;;26.35;4.87;;;;;;;;;;4402868;32;20236;-55
2022/04/28 12:48:35;;;;;;;7.15;4.95;;;;;;;;;;4399628;32;20316;-55
2022/04/28 12:51:22;;;;;;;11.05;4.97;;;;;;;;;;4390600;32;20453;-55
2022/04/28 12:53:50;;;;;;;6.90;4.82;;;;;;;;;;4390521;32;20221;-56
2022/04/28 12:56:29;;;;;;;7.62;4.72;;;;;;;;;;4402525;32;20332;-55
2022/04/28 12:58:59;;;;;;;5.25;3.60;;;;;;;;;;4392463;32;20688;-55
2022/04/28 13:01:26;;;;;;;5.93;4.07;;;;;;;;;;4392144;32;20217;-55
2022/04/28 13:04:12;;;;;;;6.53;4.60;;;;;;;;;;4393954;32;20543;-55
2022/04/28 13:06:39;;;;;;;7.00;4.68;;;;;;;;;;4395487;32;20241;-55
2022/04/28 13:09:09;;;;;;;9.25;4.60;;;;;;;;;;4396101;32;20226;-56
2022/04/28 13:11:37;;;;;;;5.30;4.40;;;;;;;;;;4401383;32;20244;-56
2022/04/28 13:14:04;;;;;;;13.20;5.82;;;;;;;;;;4401137;32;20229;-55
2022/04/28 13:16:30;;;;;;;5.65;4.57;;;;;;;;;;4401718;32;20264;-55
2022/04/28 13:18:55;;;;;;;7.80;5.82;;;;;;;;;;4393251;32;20256;-55
2022/04/28 13:21:22;;;;;;;8.30;5.90;;;;;;;;;;4400073;32;20303;-55
2022/04/28 13:23:48;;;;;;;7.57;4.93;;;;;;;;;;4401997;32;20269;-55
2022/04/28 13:26:17;;;;;;;12.30;6.03;;;;;;;;;;4401946;32;20586;-55
2022/04/28 13:28:43;;;;;;;8.68;5.15;;;;;;;;;;4402514;32;20606;-55
2022/04/28 13:31:08;;;;;;;14.85;5.55;;;;;;;;;;4402415;32;20276;-57
2022/04/28 13:33:35;;;;;;;11.73;5.43;;;;;;;;;;4400723;32;20299;-56
2022/04/28 13:36:04;;;;;;;9.52;5.70;;;;;;;;;;4402372;32;20361;-55
2022/04/28 13:38:29;;;;;;;7.15;5.50;;;;;;;;;;4393275;32;20601;-55
2022/04/28 13:40:55;;;;;;;7.97;5.10;;;;;;;;;;4392379;32;20284;-55
2022/04/28 13:43:20;;;;;;;14.43;5.75;;;;;;;;;;4401762;32;20316;-55
2022/04/28 13:45:46;;;;;;;7.65;5.00;;;;;;;;;;4402239;32;20280;-55
2022/04/28 13:48:11;;;;;;;11.45;5.53;;;;;;;;;;4390972;32;20301;-54
2022/04/28 13:50:38;;;;;;;8.70;5.30;;;;;;;;;;4399504;32;20296;-55
2022/04/28 13:53:05;;;;;;;8.85;6.45;;;;;;;;;;4402251;32;20217;-54
2022/04/28 13:55:31;;;;;;;9.70;5.87;;;;;;;;;;4396466;32;20335;-56
2022/04/28 13:57:56;;;;;;;17.50;6.40;;;;;;;;;;4399999;32;20567;-56
2022/04/28 14:00:22;;;;;;;8.77;5.75;;;;;;;;;;4400643;32;20288;-55
2022/04/28 14:02:48;;;;;;;9.80;5.45;;;;;;;;;;4399307;32;20249;-56
2022/04/28 14:05:13;;;;;;;13.75;5.93;;;;;;;;;;4397134;32;20308;-56
2022/04/28 14:07:40;;;;;;;9.18;6.35;;;;;;;;;;4396888;32;20233;-56
2022/04/28 14:10:11;;;;;;;13.85;6.20;;;;;;;;;;4396670;32;20249;-56
2022/04/28 14:12:38;;;;;;;9.13;6.15;;;;;;;;;;4400704;32;20229;-55
2022/04/28 14:15:04;;;;;;;14.23;6.32;;;;;;;;;;4395952;32;20247;-56
2022/04/28 14:17:32;;;;;;;9.30;6.10;;;;;;;;;;4401572;32;20259;-55
2022/04/28 14:19:59;;;;;;;12.60;5.62;;;;;;;;;;4401621;32;20263;-56
2022/04/28 14:22:25;;;;;;;7.60;6.12;;;;;;;;;;4401372;32;20218;-55
2022/04/28 14:24:51;;;;;;;11.23;6.78;;;;;;;;;;4396436;32;20336;-54
2022/04/28 14:27:17;;;;;;;7.45;5.82;;;;;;;;;;4386338;32;20646;-55
2022/04/28 14:29:43;;;;;;;11.07;7.15;;;;;;;;;;4392036;32;20213;-55
2022/04/28 14:32:09;;;;;;;22.05;5.68;;;;;;;;;;4401178;32;20426;-55
2022/04/28 14:34:35;;;;;;;7.70;5.45;;;;;;;;;;4389295;32;20272;-55
2022/04/28 14:37:01;;;;;;;9.20;6.68;;;;;;;;;;4386496;32;20354;-55
2022/04/28 14:39:27;;;;;;;13.23;7.15;;;;;;;;;;4400256;32;20307;-56
2022/04/28 14:41:53;;;;;;;12.07;7.57;;;;;;;;;;4401376;32;20217;-55
2022/04/28 14:44:18;;;;;;;8.70;7.00;;;;;;;;;;4400722;32;20285;-55
2022/04/28 14:46:44;;;;;;;13.70;7.40;;;;;;;;;;4400811;32;20546;-54
2022/04/28 14:54:40;;;;;;;11.18;5.55;;;;;;;;;;4400239;32;20240;-55
2022/04/28 14:57:09;;;;;;;7.32;5.93;;;;;;;;;;4400443;32;20304;-55
2022/04/28 14:59:35;;;;;;;8.57;6.35;;;;;;;;;;4400700;32;20197;-55
2022/04/28 15:02:01;;;;;;;10.27;5.50;;;;;;;;;;4396777;32;20358;-55
2022/04/28 15:04:27;;;;;;;9.25;6.18;;;;;;;;;;4401108;32;20277;-57
2022/04/28 15:06:52;;;;;;;7.40;6.07;;;;;;;;;;4397822;32;20221;-55
2022/04/28 15:09:18;;;;;;;8.32;5.95;;;;;;;;;;4399705;32;20307;-55
2022/04/28 15:11:44;;;;;;;7.10;5.45;;;;;;;;;;4400271;32;20402;-55
2022/04/28 15:14:11;;;;;;;7.55;5.75;;;;;;;;;;4398258;32;20448;-55
2022/04/28 15:16:37;;;;;;;7.82;6.95;;;;;;;;;;4394612;32;20243;-55
2022/04/28 15:19:02;;;;;;;9.20;6.37;;;;;;;;;;4394049;32;20249;-56
2022/04/28 15:21:28;;;;;;;9.60;6.78;;;;;;;;;;4400304;32;20703;-56
2022/04/28 15:23:53;;;;;;;8.30;7.18;;;;;;;;;;4400002;32;20717;-55